Time;durP1;ratioP1;P1;durP2;ratioP2;P2;SDS_P1;SDS_P2;PMS_P1;PMS_P2;Temp;Humidity;BMP_temperature;BMP_pressure;BME280_temperature;BME280_humidity;BME280_pressure;Samples;Min_cycle;Max_cycle;Signal;HPM_P1;HPM_P2
2022/09/20 00:01:13;;;;;;;15.93;3.10;;;9.70;99.90;;;;;;5019376;27;89818;-30
2022/09/20 00:03:44;;;;;;;3.88;1.70;;;9.60;99.90;;;;;;5018887;28;90915;-31
2022/09/20 00:06:15;;;;;;;7.50;2.75;;;9.60;99.90;;;;;;5018366;28;90673;-31
2022/09/20 00:08:41;;;;;;;3.30;2.45;;;9.50;99.90;;;;;;5018497;28;92110;-33
2022/09/20 00:11:14;;;;;;;4.68;2.17;;;9.50;99.90;;;;;;5019296;27;89868;-30
2022/09/20 00:13:41;;;;;;;7.53;2.42;;;9.40;99.90;;;;;;5018842;27;90242;-30
2022/09/20 00:16:09;;;;;;;7.63;3.55;;;9.30;99.90;;;;;;5018707;28;89815;-34
2022/09/20 00:18:35;;;;;;;5.05;2.78;;;9.30;99.90;;;;;;5018381;27;89482;-33
2022/09/20 00:21:02;;;;;;;13.63;3.08;;;9.30;99.90;;;;;;5019178;28;89369;-31
2022/09/20 00:23:28;;;;;;;6.20;2.13;;;9.20;99.90;;;;;;5018475;28;90366;-30
2022/09/20 00:25:59;;;;;;;6.75;2.40;;;9.20;99.90;;;;;;5018774;27;89723;-31
2022/09/20 00:28:26;;;;;;;10.52;2.38;;;9.20;99.90;;;;;;5018339;27;88802;-30
2022/09/20 00:30:53;;;;;;;6.72;1.90;;;9.20;99.90;;;;;;5019088;27;88286;-33
2022/09/20 00:33:20;;;;;;;4.75;2.42;;;9.10;99.90;;;;;;5018141;27;90617;-30
2022/09/20 00:35:46;;;;;;;4.32;1.75;;;9.10;99.90;;;;;;5018170;27;89735;-32
2022/09/20 00:38:12;;;;;;;10.30;2.15;;;9.10;99.90;;;;;;5012849;28;88713;-35
2022/09/20 00:40:40;;;;;;;3.67;2.17;;;9.00;99.90;;;;;;5010871;28;88423;-31
2022/09/20 00:43:06;;;;;;;5.22;2.65;;;9.00;99.90;;;;;;5042098;22;90261;-30
2022/09/20 00:45:32;;;;;;;4.30;2.35;;;9.00;99.90;;;;;;5018712;28;89969;-32
2022/09/20 00:48:03;;;;;;;7.63;2.38;;;9.00;99.90;;;;;;5021103;28;91584;-34
2022/09/20 00:50:36;;;;;;;3.85;2.33;;;8.90;99.90;;;;;;5022051;28;88972;-29
2022/09/20 00:53:10;;;;;;;6.68;1.98;;;8.80;99.90;;;;;;5021876;27;89581;-30
2022/09/20 00:55:44;;;;;;;5.85;2.50;;;8.70;99.90;;;;;;5021860;28;91243;-29
2022/09/20 00:58:10;;;;;;;5.00;2.03;;;8.70;99.90;;;;;;5022203;27;89142;-31
2022/09/20 01:00:37;;;;;;;3.20;1.92;;;8.70;99.90;;;;;;5022235;27;88305;-30
2022/09/20 01:03:07;;;;;;;6.93;2.20;;;8.70;99.90;;;;;;5021680;27;90370;-31
2022/09/20 01:05:34;;;;;;;8.05;2.55;;;8.60;99.90;;;;;;5021088;28;91168;-31
2022/09/20 01:08:00;;;;;;;2.53;1.65;;;8.60;99.90;;;;;;5021430;28;89619;-33
2022/09/20 01:10:26;;;;;;;2.42;1.95;;;8.50;99.90;;;;;;5021623;27;90230;-31
2022/09/20 01:12:52;;;;;;;5.63;3.00;;;8.50;99.90;;;;;;5021557;28;90987;-29
2022/09/20 01:15:19;;;;;;;3.67;2.03;;;8.40;99.90;;;;;;5021592;27;89144;-31
2022/09/20 01:17:48;;;;;;;3.90;2.05;;;8.40;99.90;;;;;;5021652;28;89927;-30
2022/09/20 01:20:24;;;;;;;3.50;2.22;;;8.40;99.90;;;;;;5020997;28;89373;-32
2022/09/20 01:23:02;;;;;;;7.45;2.22;;;8.30;99.90;;;;;;5020990;28;89648;-32
2022/09/20 01:25:51;;;;;;;3.00;1.50;;;8.30;99.90;;;;;;5021364;28;89595;-30
2022/09/20 01:28:17;;;;;;;10.18;2.47;;;8.30;99.90;;;;;;5020749;28;89563;-31
2022/09/20 01:30:51;;;;;;;5.18;2.55;;;8.30;99.90;;;;;;5021902;28;89185;-30
2022/09/20 01:33:30;;;;;;;3.28;1.77;;;8.30;99.90;;;;;;5021082;27;90315;-31
2022/09/20 01:36:00;;;;;;;9.07;3.03;;;8.30;99.90;;;;;;5021512;28;89965;-31
2022/09/20 01:39:00;;;;;;;2.40;1.25;;;8.20;99.90;;;;;;5013020;27;92613;-33
2022/09/20 01:41:44;;;;;;;5.22;2.40;;;8.30;99.90;;;;;;5020065;28;89175;-33
2022/09/20 01:44:36;;;;;;;7.00;3.10;;;8.20;99.90;;;;;;5020529;27;90680;-34
2022/09/20 01:47:17;;;;;;;5.72;1.75;;;8.20;99.90;;;;;;5020604;27;93109;-33
2022/09/20 01:50:10;;;;;;;3.20;1.70;;;8.20;99.90;;;;;;5021755;27;90368;-33
2022/09/20 01:52:45;;;;;;;3.97;1.85;;;8.10;99.90;;;;;;5021261;27;88757;-28
2022/09/20 01:55:35;;;;;;;4.82;2.17;;;8.20;99.90;;;;;;5021137;28;90292;-28
2022/09/20 01:58:40;;;;;;;4.82;1.95;;;8.10;99.90;;;;;;5019797;27;89725;-32
2022/09/20 02:01:18;;;;;;;2.70;1.98;;;8.10;99.90;;;;;;5007179;28;90267;-31
2022/09/20 02:03:59;;;;;;;10.38;2.53;;;8.10;99.90;;;;;;4993566;28;89532;-28
2022/09/20 02:06:33;;;;;;;4.95;2.22;;;8.10;99.90;;;;;;5021024;28;90989;-32
2022/09/20 02:09:13;;;;;;;2.33;1.55;;;8.10;99.90;;;;;;5020385;27;89553;-30
2022/09/20 02:11:45;;;;;;;3.20;2.10;;;8.10;99.90;;;;;;5020507;28;90889;-29
2022/09/20 02:14:16;;;;;;;2.63;1.40;;;8.10;99.90;;;;;;5021050;28;90448;-29
2022/09/20 02:17:03;;;;;;;6.07;1.55;;;8.10;99.90;;;;;;5021002;28;90395;-30
2022/09/20 02:19:38;;;;;;;9.07;2.80;;;8.10;99.90;;;;;;5021019;27;90207;-27
2022/09/20 02:22:18;;;;;;;8.05;2.15;;;8.10;99.90;;;;;;5019773;28;89040;-29
2022/09/20 02:25:12;;;;;;;8.55;2.38;;;8.10;99.90;;;;;;5014035;28;89347;-31
2022/09/20 02:27:58;;;;;;;8.15;2.67;;;8.10;99.90;;;;;;4999772;28;90133;-31
2022/09/20 02:30:54;;;;;;;3.10;2.40;;;8.10;99.90;;;;;;5003937;28;89457;-29
2022/09/20 02:33:28;;;;;;;5.13;2.05;;;8.10;99.90;;;;;;4994631;28;89892;-29
2022/09/20 02:36:13;;;;;;;10.13;2.58;;;8.10;99.90;;;;;;5008448;28;88445;-30
2022/09/20 02:38:48;;;;;;;3.58;1.85;;;8.10;99.90;;;;;;5020525;27;90641;-30
2022/09/20 02:41:36;;;;;;;11.55;2.25;;;8.10;99.90;;;;;;5019114;28;91139;-29
2022/09/20 02:44:26;;;;;;;5.47;2.40;;;8.10;99.90;;;;;;5005401;27;91042;-30
2022/09/20 02:47:01;;;;;;;5.95;1.85;;;8.10;99.90;;;;;;5020304;28;89608;-31
2022/09/20 02:49:34;;;;;;;6.40;1.80;;;8.10;99.90;;;;;;5020280;27;90782;-33
2022/09/20 02:52:10;;;;;;;6.07;2.70;;;8.10;99.90;;;;;;5020054;27;90413;-30
2022/09/20 02:54:38;;;;;;;7.68;1.85;;;8.00;99.90;;;;;;5020187;28;89630;-31
2022/09/20 02:57:24;;;;;;;5.05;2.30;;;8.10;99.90;;;;;;5020526;28;89694;-31
2022/09/20 03:00:01;;;;;;;6.97;2.20;;;8.10;99.90;;;;;;5012098;28;90216;-29
2022/09/20 03:02:42;;;;;;;2.15;1.98;;;8.10;99.90;;;;;;5015075;28;89733;-29
2022/09/20 03:05:28;;;;;;;7.43;2.65;;;8.10;99.90;;;;;;5020679;27;89961;-28
2022/09/20 03:08:14;;;;;;;6.10;2.35;;;8.00;99.90;;;;;;5019232;27;89859;-31
2022/09/20 03:11:14;;;;;;;5.90;1.83;;;8.00;99.90;;;;;;5018801;27;91231;-29
2022/09/20 03:14:02;;;;;;;2.08;1.58;;;8.00;99.90;;;;;;4999666;28;90006;-29
2022/09/20 03:16:47;;;;;;;7.82;2.80;;;8.00;99.90;;;;;;5019297;27;89801;-31
2022/09/20 03:19:42;;;;;;;5.38;1.75;;;8.00;99.90;;;;;;5019956;27;88503;-33
2022/09/20 03:22:30;;;;;;;3.28;2.00;;;8.00;99.90;;;;;;4999715;28;90129;-28
2022/09/20 03:25:20;;;;;;;12.18;1.90;;;8.00;99.90;;;;;;5019900;27;89525;-28
2022/09/20 03:28:28;;;;;;;4.28;2.15;;;8.00;99.90;;;;;;5020100;28;89705;-31
2022/09/20 03:31:04;;;;;;;6.78;2.03;;;8.00;99.90;;;;;;5020176;28;89408;-32
2022/09/20 03:34:15;;;;;;;5.68;2.20;;;8.00;99.90;;;;;;5014396;27;90581;-31
2022/09/20 03:36:41;;;;;;;4.93;2.03;;;8.00;99.90;;;;;;5015202;28;90745;-31
2022/09/20 03:39:39;;;;;;;6.07;2.22;;;8.00;99.90;;;;;;5020295;28;90036;-28
2022/09/20 03:42:24;;;;;;;4.63;1.88;;;8.00;99.90;;;;;;5019930;28;88207;-32
2022/09/20 03:45:20;;;;;;;9.23;2.13;;;8.00;99.90;;;;;;5018980;27;90282;-31
2022/09/20 03:47:55;;;;;;;1.77;1.60;;;8.00;99.90;;;;;;5018630;27;89489;-32
2022/09/20 03:50:49;;;;;;;5.63;2.78;;;8.10;99.90;;;;;;5019236;28;89926;-32
2022/09/20 03:53:38;;;;;;;4.65;2.40;;;8.10;99.90;;;;;;5019290;28;88408;-31
2022/09/20 03:56:21;;;;;;;3.25;2.30;;;8.10;99.90;;;;;;4996509;28;90187;-33
2022/09/20 03:59:15;;;;;;;4.07;2.85;;;8.10;99.90;;;;;;5019448;27;89930;-35
2022/09/20 04:02:12;;;;;;;3.17;1.30;;;8.10;99.90;;;;;;5018150;28;89635;-34
2022/09/20 04:04:47;;;;;;;4.78;1.92;;;8.10;99.90;;;;;;4995865;28;90253;-34
2022/09/20 04:07:45;;;;;;;4.75;2.00;;;8.10;99.90;;;;;;5019055;27;90261;-33
2022/09/20 04:10:41;;;;;;;2.92;1.88;;;8.10;99.90;;;;;;5018935;28;89749;-35
2022/09/20 04:14:02;;;;;;;8.02;2.95;;;8.10;99.90;;;;;;4996616;28;89408;-35
2022/09/20 04:17:10;;;;;;;7.30;2.65;;;8.20;99.90;;;;;;5009563;27;88952;-30
2022/09/20 04:19:50;;;;;;;9.73;2.38;;;8.20;99.90;;;;;;5018895;28;90347;-29
2022/09/20 04:22:20;;;;;;;4.50;2.15;;;8.30;99.90;;;;;;5021194;27;89743;-29
2022/09/20 04:24:57;;;;;;;4.20;2.13;;;8.20;99.90;;;;;;5022685;28;89591;-28
2022/09/20 04:27:27;;;;;;;5.28;2.45;;;8.30;99.90;;;;;;5022216;27;88856;-34
2022/09/20 04:30:20;;;;;;;7.10;2.05;;;8.30;99.90;;;;;;5009013;28;91725;-30
2022/09/20 04:33:33;;;;;;;8.82;2.58;;;8.30;99.90;;;;;;5019245;28;91228;-35
2022/09/20 04:36:29;;;;;;;5.85;2.55;;;8.40;99.90;;;;;;4974105;28;91490;-30
2022/09/20 04:39:03;;;;;;;7.25;1.92;;;8.40;99.90;;;;;;4996232;28;87582;-31
2022/09/20 04:41:58;;;;;;;7.28;4.28;;;8.40;99.90;;;;;;5022618;28;90324;-33
2022/09/20 04:44:42;;;;;;;11.00;2.25;;;8.40;99.90;;;;;;5022388;28;89175;-30
2022/09/20 04:47:28;;;;;;;9.88;4.75;;;8.40;99.90;;;;;;5021348;28;89778;-29
2022/09/20 04:50:13;;;;;;;5.97;2.97;;;8.50;99.90;;;;;;5022122;28;88573;-33
2022/09/20 04:53:13;;;;;;;11.27;2.60;;;8.50;99.90;;;;;;4998557;28;90027;-32
2022/09/20 04:56:04;;;;;;;12.18;2.03;;;8.50;99.90;;;;;;5023018;27;89165;-33
2022/09/20 04:58:47;;;;;;;2.85;1.50;;;8.50;99.90;;;;;;5021237;28;90002;-32
2022/09/20 05:01:16;;;;;;;4.05;2.40;;;8.50;99.90;;;;;;5021654;27;91119;-31
2022/09/20 05:03:42;;;;;;;3.70;2.25;;;8.40;99.90;;;;;;5021166;27;90035;-30
2022/09/20 05:06:45;;;;;;;3.67;1.63;;;8.40;99.90;;;;;;5021834;27;89669;-29
2022/09/20 05:09:55;;;;;;;3.85;1.83;;;8.50;99.90;;;;;;5021751;28;90022;-29
2022/09/20 05:12:39;;;;;;;3.90;1.52;;;8.50;99.90;;;;;;5021354;27;89256;-33
2022/09/20 05:15:23;;;;;;;4.95;1.65;;;8.50;99.90;;;;;;5017292;28;89387;-29
2022/09/20 05:18:27;;;;;;;2.80;2.05;;;8.40;99.90;;;;;;5009954;28;89758;-34
2022/09/20 05:21:06;;;;;;;8.32;2.25;;;8.50;99.90;;;;;;5004827;27;89554;-29
2022/09/20 05:24:20;;;;;;;7.65;1.77;;;8.40;99.90;;;;;;5001559;28;88977;-30
2022/09/20 05:26:51;;;;;;;7.78;2.22;;;8.50;99.90;;;;;;4995743;28;90680;-31
2022/09/20 05:29:52;;;;;;;8.38;1.92;;;8.50;99.90;;;;;;5000635;28;90736;-34
2022/09/20 05:32:47;;;;;;;7.35;3.63;;;8.50;99.90;;;;;;4980031;28;90275;-35
2022/09/20 05:35:33;;;;;;;7.03;2.50;;;8.60;99.90;;;;;;5005382;28;89569;-30
2022/09/20 05:38:23;;;;;;;4.22;2.13;;;8.60;99.90;;;;;;5020572;27;91989;-32
2022/09/20 05:41:17;;;;;;;5.20;2.35;;;8.70;99.90;;;;;;5001142;28;89792;-32
2022/09/20 05:44:14;;;;;;;3.30;1.95;;;8.80;99.90;;;;;;5000636;28;89643;-28
2022/09/20 05:47:16;;;;;;;6.90;1.92;;;8.80;99.90;;;;;;5000895;28;89473;-29
2022/09/20 05:49:59;;;;;;;4.03;1.90;;;8.80;99.90;;;;;;5001476;28;90608;-30
2022/09/20 05:52:41;;;;;;;4.15;2.40;;;8.90;99.90;;;;;;5000862;28;89674;-30
2022/09/20 05:55:28;;;;;;;6.18;2.05;;;9.00;99.90;;;;;;5001042;28;90590;-29
2022/09/20 05:58:24;;;;;;;5.10;2.13;;;9.10;99.90;;;;;;5000422;28;90247;-30
2022/09/20 06:01:13;;;;;;;4.35;1.80;;;9.20;99.90;;;;;;5000114;28;89985;-32
2022/09/20 06:03:43;;;;;;;1.85;1.42;;;9.30;99.90;;;;;;4999885;28;89508;-30
2022/09/20 06:06:36;;;;;;;8.25;2.25;;;9.30;99.90;;;;;;5000787;28;89548;-30
2022/09/20 06:09:05;;;;;;;6.50;2.45;;;9.50;99.90;;;;;;5015534;28;87978;-31
2022/09/20 06:12:05;;;;;;;2.60;1.90;;;9.50;99.90;;;;;;5000658;28;90045;-28
2022/09/20 06:14:53;;;;;;;7.05;1.75;;;9.60;99.90;;;;;;5000093;28;89641;-33
2022/09/20 06:17:30;;;;;;;4.68;1.88;;;9.70;99.90;;;;;;4992901;28;89505;-31
2022/09/20 06:20:15;;;;;;;4.45;1.27;;;9.80;99.90;;;;;;5000747;28;89671;-29
2022/09/20 06:22:47;;;;;;;12.18;1.90;;;9.90;99.90;;;;;;5000245;28;90557;-30
2022/09/20 06:25:31;;;;;;;9.77;2.60;;;10.00;99.90;;;;;;4999210;28;91397;-32
2022/09/20 06:28:19;;;;;;;2.80;1.35;;;10.10;99.90;;;;;;4998694;28;90530;-29
2022/09/20 06:30:53;;;;;;;1.63;1.35;;;10.30;99.90;;;;;;4992890;28;89132;-33
2022/09/20 06:33:24;;;;;;;5.85;2.05;;;10.40;99.90;;;;;;4987289;28;89963;-32
2022/09/20 06:42:13;;;;;;;1.90;1.50;;;10.70;99.90;;;;;;4996228;28;88317;-32
2022/09/20 06:44:42;;;;;;;3.50;1.95;;;10.80;99.90;;;;;;4997891;28;90190;-33
2022/09/20 06:47:11;;;;;;;5.38;1.67;;;10.80;99.90;;;;;;4998105;28;89756;-31
2022/09/20 06:49:40;;;;;;;3.95;1.95;;;10.90;99.90;;;;;;4997372;28;89822;-33
2022/09/20 06:52:06;;;;;;;;;;;10.90;99.90;;;;;;4997767;28;90183;-32
2022/09/20 06:54:32;;;;;;;9.52;2.92;;;10.90;99.90;;;;;;4999169;28;90553;-31
2022/09/20 06:57:02;;;;;;;5.38;1.75;;;10.90;99.90;;;;;;4997638;28;89395;-32
2022/09/20 06:59:27;;;;;;;8.43;1.52;;;11.00;99.90;;;;;;4997194;28;90070;-29
2022/09/20 07:01:53;;;;;;;5.05;1.98;;;11.00;99.90;;;;;;4998518;28;88633;-31
2022/09/20 07:04:20;;;;;;;4.05;1.35;;;11.00;99.90;;;;;;4996711;28;89147;-32
2022/09/20 07:06:47;;;;;;;3.33;2.07;;;11.00;99.90;;;;;;4997655;28;90524;-30
2022/09/20 07:09:12;;;;;;;7.82;2.30;;;11.00;99.90;;;;;;4997006;28;90410;-31
2022/09/20 07:11:38;;;;;;;3.53;2.50;;;11.00;99.90;;;;;;4997329;28;87878;-32
2022/09/20 07:14:03;;;;;;;6.03;2.13;;;11.00;99.90;;;;;;4997210;28;90413;-33
2022/09/20 07:16:29;;;;;;;2.90;1.75;;;11.00;99.90;;;;;;4997401;28;89948;-31
2022/09/20 07:18:55;;;;;;;12.15;2.75;;;11.00;99.90;;;;;;4997078;28;90419;-32
2022/09/20 07:21:21;;;;;;;7.03;2.67;;;11.00;99.90;;;;;;4997612;28;89233;-31
2022/09/20 07:23:47;;;;;;;2.25;2.05;;;11.00;99.90;;;;;;4997904;28;90524;-31
2022/09/20 07:26:25;;;;;;;4.07;2.33;;;11.10;99.90;;;;;;4997497;28;89880;-31
2022/09/20 07:28:52;;;;;;;6.00;2.10;;;11.20;99.90;;;;;;4997998;28;90897;-29
2022/09/20 07:31:19;;;;;;;3.15;1.50;;;11.40;99.90;;;;;;4997366;28;89196;-30
2022/09/20 07:33:45;;;;;;;3.00;2.15;;;11.60;99.90;;;;;;5000723;28;90327;-29
2022/09/20 07:36:11;;;;;;;3.15;1.83;;;11.70;99.90;;;;;;5010734;28;89635;-32
2022/09/20 07:38:37;;;;;;;4.18;1.45;;;11.90;99.90;;;;;;5017396;27;91745;-31
2022/09/20 07:41:03;;;;;;;5.63;1.98;;;12.10;99.90;;;;;;5016642;28;88349;-29
2022/09/20 07:43:29;;;;;;;3.17;1.70;;;12.20;99.90;;;;;;5016640;28;89879;-31
2022/09/20 07:45:56;;;;;;;6.22;1.67;;;12.40;99.90;;;;;;5017591;27;90052;-33
2022/09/20 07:48:41;;;;;;;4.78;1.73;;;12.40;99.90;;;;;;5016761;28;89903;-30
2022/09/20 07:51:11;;;;;;;22.80;2.72;;;12.50;99.90;;;;;;5017457;27;89377;-30
2022/09/20 07:53:37;;;;;;;4.10;1.92;;;12.70;99.90;;;;;;5015880;28;91577;-30
2022/09/20 07:56:03;;;;;;;2.17;1.45;;;12.90;99.90;;;;;;5016185;27;92297;-31
2022/09/20 07:58:30;;;;;;;3.70;1.30;;;13.10;99.90;;;;;;5016920;28;89725;-31
2022/09/20 08:00:58;;;;;;;9.20;2.20;;;13.30;99.90;;;;;;5011316;28;88872;-33
2022/09/20 08:03:25;;;;;;;6.35;1.40;;;13.60;99.90;;;;;;4996631;28;90878;-30
2022/09/20 08:05:57;;;;;;;3.22;1.30;;;13.80;99.90;;;;;;4996019;28;91185;-30
2022/09/20 08:08:22;;;;;;;5.07;1.55;;;14.00;99.90;;;;;;4996443;28;89379;-31
2022/09/20 08:10:48;;;;;;;4.70;1.25;;;14.00;99.90;;;;;;4996351;28;89316;-33
2022/09/20 08:13:14;;;;;;;2.67;1.25;;;14.20;99.90;;;;;;4996639;28;90141;-30
2022/09/20 08:15:41;;;;;;;2.88;1.30;;;14.20;99.90;;;;;;4996628;28;89728;-33
2022/09/20 08:18:10;;;;;;;3.83;1.08;;;14.10;99.90;;;;;;4996541;28;90072;-34
2022/09/20 08:20:37;;;;;;;2.33;1.58;;;14.00;99.90;;;;;;4996807;28;89339;-33
2022/09/20 08:23:04;;;;;;;3.22;1.10;;;14.00;99.90;;;;;;4997071;28;90224;-29
2022/09/20 08:25:30;;;;;;;1.88;1.30;;;13.90;99.90;;;;;;4996078;28;89606;-32
2022/09/20 08:27:55;;;;;;;2.75;1.25;;;14.00;99.90;;;;;;4996754;28;90002;-33
2022/09/20 08:30:22;;;;;;;2.05;0.90;;;14.00;99.90;;;;;;4995812;28;89457;-30
2022/09/20 08:32:48;;;;;;;2.50;1.23;;;13.90;99.90;;;;;;4996485;28;90347;-31
2022/09/20 08:35:13;;;;;;;1.38;0.60;;;13.90;99.90;;;;;;5001424;28;89870;-31
2022/09/20 08:37:42;;;;;;;1.35;0.80;;;13.80;99.90;;;;;;5016613;28;89842;-33
2022/09/20 08:40:14;;;;;;;1.13;1.00;;;13.90;99.90;;;;;;5016503;27;89065;-30
2022/09/20 08:42:43;;;;;;;4.75;1.15;;;13.90;99.90;;;;;;5015836;27;89119;-30
2022/09/20 08:45:20;;;;;;;0.93;0.80;;;13.90;99.90;;;;;;4998453;28;89774;-32
2022/09/20 08:47:53;;;;;;;0.65;0.60;;;13.90;99.90;;;;;;4996333;28;89282;-30
2022/09/20 08:50:20;;;;;;;1.48;1.10;;;13.90;99.90;;;;;;4996863;28;89261;-30
2022/09/20 08:52:48;;;;;;;4.72;1.20;;;14.00;99.90;;;;;;4995847;28;90620;-32
2022/09/20 08:55:15;;;;;;;;;;;14.00;99.90;;;;;;4996126;28;90261;-32
2022/09/20 08:57:42;;;;;;;4.32;0.88;;;14.00;99.90;;;;;;4997851;28;89220;-30
2022/09/20 09:00:16;;;;;;;3.15;0.70;;;14.00;99.90;;;;;;4996978;28;87982;-31
2022/09/20 09:02:42;;;;;;;3.88;0.98;;;14.00;99.90;;;;;;4996659;28;89980;-34
2022/09/20 09:05:30;;;;;;;3.65;1.27;;;14.00;99.90;;;;;;4996420;28;90566;-30
2022/09/20 09:07:59;;;;;;;4.32;1.17;;;14.10;99.90;;;;;;4997651;28;88826;-31
2022/09/20 09:10:35;;;;;;;1.83;0.93;;;14.20;99.90;;;;;;4999610;28;88388;-31
2022/09/20 09:13:01;;;;;;;2.38;0.88;;;14.20;99.90;;;;;;4999832;28;90240;-31
2022/09/20 09:15:31;;;;;;;3.75;0.80;;;14.30;99.90;;;;;;4999246;28;89367;-32
2022/09/20 09:17:57;;;;;;;2.88;0.82;;;14.40;99.90;;;;;;4999885;28;89888;-32
2022/09/20 09:20:24;;;;;;;4.95;1.60;;;14.40;99.90;;;;;;4999125;28;89917;-31
2022/09/20 09:22:59;;;;;;;8.38;1.30;;;14.40;99.90;;;;;;4998963;28;90986;-31
2022/09/20 09:25:36;;;;;;;2.13;1.00;;;14.30;99.90;;;;;;4999603;28;89400;-31
2022/09/20 09:28:08;;;;;;;4.03;1.08;;;14.40;99.90;;;;;;4999543;28;89563;-31
2022/09/20 09:30:36;;;;;;;1.65;0.75;;;14.60;99.90;;;;;;4999703;28;88574;-33
2022/09/20 09:33:28;;;;;;;1.88;0.85;;;14.70;99.90;;;;;;4999065;28;90310;-31
2022/09/20 09:35:58;;;;;;;2.17;0.45;;;14.90;99.90;;;;;;5009714;28;89815;-34
2022/09/20 09:38:27;;;;;;;3.63;1.00;;;15.00;99.90;;;;;;5019105;28;89661;-30
2022/09/20 09:40:54;;;;;;;3.45;1.33;;;15.00;99.90;;;;;;5019814;27;90091;-34
2022/09/20 09:43:25;;;;;;;4.68;1.17;;;15.10;99.90;;;;;;5018859;27;90320;-32
2022/09/20 09:45:52;;;;;;;2.47;1.25;;;15.30;99.90;;;;;;5003214;28;92001;-33
2022/09/20 09:48:30;;;;;;;8.65;1.67;;;15.40;99.90;;;;;;4999377;28;90241;-32
2022/09/20 09:51:10;;;;;;;6.47;2.15;;;15.50;99.90;;;;;;4999514;28;89734;-31
2022/09/20 09:53:37;;;;;;;1.55;0.95;;;15.60;99.90;;;;;;4998576;28;90293;-33
2022/09/20 09:56:20;;;;;;;2.90;1.40;;;15.70;99.90;;;;;;4999331;28;88718;-30
2022/09/20 09:59:09;;;;;;;5.05;1.08;;;15.70;99.90;;;;;;4998796;28;88480;-32
2022/09/20 10:01:56;;;;;;;4.50;1.17;;;15.70;99.90;;;;;;4999389;28;89316;-30
2022/09/20 10:04:31;;;;;;;4.05;1.38;;;15.80;99.90;;;;;;4999192;28;90272;-31
2022/09/20 10:07:07;;;;;;;1.35;1.10;;;16.00;99.90;;;;;;4998372;28;89736;-32
2022/09/20 10:09:45;;;;;;;6.30;1.70;;;15.90;99.90;;;;;;4998360;28;89974;-31
2022/09/20 10:12:34;;;;;;;1.42;0.88;;;15.90;99.90;;;;;;4997656;28;90197;-35
2022/09/20 10:15:27;;;;;;;4.03;1.65;;;15.80;99.90;;;;;;4998653;28;90331;-32
2022/09/20 10:18:07;;;;;;;2.83;1.25;;;15.70;99.90;;;;;;4999476;28;88873;-32
2022/09/20 10:20:50;;;;;;;0.80;0.80;;;15.60;99.90;;;;;;4998060;28;89845;-30
2022/09/20 10:23:40;;;;;;;1.42;1.10;;;15.80;99.90;;;;;;4998257;28;88347;-30
2022/09/20 10:26:15;;;;;;;1.13;1.02;;;15.90;99.90;;;;;;4988612;28;90717;-33
2022/09/20 10:29:04;;;;;;;3.85;1.13;;;15.90;99.90;;;;;;4998234;28;90015;-30
2022/09/20 10:31:51;;;;;;;3.90;0.90;;;15.80;99.90;;;;;;4998229;28;89460;-33
2022/09/20 10:34:22;;;;;;;3.00;0.95;;;15.70;99.90;;;;;;4998472;28;89026;-33
2022/09/20 10:36:58;;;;;;;4.32;0.77;;;15.40;99.90;;;;;;5015780;28;90326;-30
2022/09/20 10:39:30;;;;;;;6.22;1.38;;;15.20;99.90;;;;;;5018174;27;91926;-31
2022/09/20 10:44:58;;;;;;;0.95;0.65;;;14.80;99.90;;;;;;4965245;28;88807;-32
2022/09/20 10:47:38;;;;;;;2.10;1.37;;;14.80;99.90;;;;;;4958542;28;91392;-31
2022/09/20 10:50:42;;;;;;;2.22;2.00;;;14.80;99.90;;;;;;4957846;28;89722;-30
2022/09/20 10:53:19;;;;;;;3.80;1.10;;;14.80;99.90;;;;;;4958490;28;89423;-32
2022/09/20 10:56:01;;;;;;;2.50;0.80;;;14.80;99.90;;;;;;4958610;28;89327;-31
2022/09/20 10:58:36;;;;;;;3.67;1.45;;;14.90;99.90;;;;;;4957052;28;89991;-32
2022/09/20 11:01:16;;;;;;;1.25;0.70;;;15.00;99.90;;;;;;4945446;28;91401;-32
2022/09/20 11:04:07;;;;;;;3.63;1.23;;;15.00;99.90;;;;;;4957945;28;90079;-31
2022/09/20 11:06:48;;;;;;;2.13;1.08;;;15.20;99.90;;;;;;4958332;28;89413;-30
2022/09/20 11:09:22;;;;;;;4.90;1.08;;;15.50;99.90;;;;;;4957593;28;90748;-32
2022/09/20 11:12:03;;;;;;;7.97;1.42;;;15.80;99.90;;;;;;4958153;28;89765;-31
2022/09/20 11:14:37;;;;;;;2.22;1.10;;;16.00;99.90;;;;;;4958039;28;90712;-29
2022/09/20 11:17:11;;;;;;;2.58;0.95;;;16.00;99.90;;;;;;4957860;28;89038;-30
2022/09/20 11:20:01;;;;;;;3.55;1.17;;;15.90;99.90;;;;;;4945083;28;90296;-30
2022/09/20 11:22:48;;;;;;;1.90;1.30;;;15.80;99.90;;;;;;4958038;28;89995;-31
2022/09/20 11:25:23;;;;;;;4.35;1.08;;;15.60;99.90;;;;;;4957732;28;89667;-34
2022/09/20 11:28:06;;;;;;;3.40;1.23;;;15.50;99.90;;;;;;4958484;28;88345;-30
2022/09/20 11:30:39;;;;;;;5.07;1.33;;;15.40;99.90;;;;;;4957706;28;90157;-32
2022/09/20 11:33:26;;;;;;;1.67;0.75;;;15.40;99.90;;;;;;4967283;28;90674;-33
2022/09/20 11:35:57;;;;;;;2.80;1.98;;;15.40;99.90;;;;;;4957974;28;89832;-33
2022/09/20 11:38:42;;;;;;;1.80;0.90;;;15.50;99.90;;;;;;4957722;28;89621;-34
2022/09/20 11:41:27;;;;;;;2.25;1.27;;;15.60;99.90;;;;;;4957958;28;90329;-31
2022/09/20 11:44:06;;;;;;;3.88;1.52;;;15.80;99.90;;;;;;4990837;28;89656;-31
2022/09/20 11:46:57;;;;;;;1.95;0.93;;;15.90;99.90;;;;;;5017089;27;89604;-33
2022/09/20 11:49:29;;;;;;;3.90;0.82;;;16.20;99.90;;;;;;5017390;28;87758;-30
2022/09/20 11:52:24;;;;;;;3.58;0.95;;;16.20;99.90;;;;;;5017999;27;90560;-30
2022/09/20 11:55:00;;;;;;;1.38;0.93;;;16.20;99.90;;;;;;5017478;27;89776;-31
2022/09/20 11:57:27;;;;;;;2.47;1.20;;;16.20;99.90;;;;;;5016166;28;90567;-34
2022/09/20 12:00:01;;;;;;;1.30;1.20;;;16.20;99.90;;;;;;5016941;28;89012;-32
2022/09/20 12:02:52;;;;;;;1.50;0.93;;;16.20;99.90;;;;;;5016916;28;90655;-31
2022/09/20 12:05:40;;;;;;;5.25;1.58;;;16.10;99.90;;;;;;5016827;28;90132;-33
2022/09/20 12:08:27;;;;;;;1.52;0.93;;;16.10;99.90;;;;;;5017889;27;89656;-32
2022/09/20 12:11:13;;;;;;;1.83;0.88;;;16.00;99.90;;;;;;5016989;27;87901;-31
2022/09/20 12:13:42;;;;;;;3.88;1.70;;;16.00;99.90;;;;;;5016606;27;90212;-31
2022/09/20 12:16:14;;;;;;;2.33;1.17;;;16.00;99.90;;;;;;5016542;27;89864;-32
2022/09/20 12:18:46;;;;;;;2.28;1.13;;;16.00;99.90;;;;;;5017661;27;89623;-29
2022/09/20 12:21:17;;;;;;;1.65;1.55;;;16.10;99.90;;;;;;5017588;28;89137;-33
2022/09/20 12:23:44;;;;;;;2.45;1.13;;;16.10;99.90;;;;;;5017076;27;89995;-32
2022/09/20 12:26:21;;;;;;;2.60;0.90;;;16.20;99.90;;;;;;5016375;28;90643;-29
2022/09/20 12:28:53;;;;;;;1.13;0.85;;;16.20;99.90;;;;;;5016923;28;90094;-33
2022/09/20 12:31:25;;;;;;;5.47;0.90;;;16.30;99.90;;;;;;5016972;28;89393;-31
2022/09/20 12:34:14;;;;;;;3.25;1.65;;;16.40;99.90;;;;;;5009779;28;90299;-34
2022/09/20 12:36:42;;;;;;;4.35;1.27;;;16.40;99.90;;;;;;4998433;28;90550;-33
2022/09/20 12:39:11;;;;;;;2.70;0.93;;;16.50;99.90;;;;;;5016934;27;89815;-33
2022/09/20 12:44:32;;;;;;;2.30;1.38;;;16.50;99.90;;;;;;4968559;28;89722;-32
2022/09/20 12:47:23;;;;;;;2.72;1.27;;;16.40;99.90;;;;;;4979381;28;89781;-30
2022/09/20 12:55:26;;;;;;;7.72;1.33;;;16.10;99.90;;;;;;4979610;28;90024;-30
2022/09/20 12:58:13;;;;;;;1.92;0.98;;;16.00;99.90;;;;;;4980260;28;88854;-33
2022/09/20 13:00:49;;;;;;;2.72;1.42;;;16.00;99.90;;;;;;4975432;28;89320;-31
2022/09/20 13:03:20;;;;;;;3.80;1.23;;;15.90;99.90;;;;;;4979748;28;89118;-30
2022/09/20 13:05:51;;;;;;;3.95;2.00;;;15.90;99.90;;;;;;4980021;28;90438;-32
2022/09/20 13:08:20;;;;;;;2.88;1.17;;;15.90;99.90;;;;;;4979780;28;89691;-33
2022/09/20 13:11:16;;;;;;;1.33;1.08;;;15.80;99.90;;;;;;4979856;28;89516;-30
2022/09/20 13:13:58;;;;;;;6.28;1.70;;;15.80;99.90;;;;;;4976807;28;89119;-29
2022/09/20 13:16:38;;;;;;;3.60;1.90;;;15.90;99.90;;;;;;4954993;28;89313;-33
2022/09/20 13:19:08;;;;;;;2.95;1.38;;;16.00;99.90;;;;;;4978911;28;90599;-30
2022/09/20 13:21:38;;;;;;;1.65;1.05;;;16.10;99.90;;;;;;4978923;28;90520;-31
2022/09/20 13:24:06;;;;;;;5.60;1.95;;;16.10;99.90;;;;;;4979850;28;89796;-30
2022/09/20 13:26:38;;;;;;;3.05;1.10;;;16.10;99.90;;;;;;4978925;28;90141;-32
2022/09/20 13:29:08;;;;;;;6.63;1.35;;;16.10;99.90;;;;;;4979331;28;90056;-31
2022/09/20 13:31:34;;;;;;;6.60;1.23;;;16.20;99.90;;;;;;4979107;28;89836;-32
2022/09/20 13:34:21;;;;;;;2.15;1.33;;;16.40;99.90;;;;;;4979322;28;88597;-31
2022/09/20 13:36:49;;;;;;;1.65;0.98;;;16.50;99.90;;;;;;4975653;28;90758;-30
2022/09/20 13:39:25;;;;;;;5.22;1.13;;;16.60;99.90;;;;;;4959078;28;89625;-30
2022/09/20 13:41:51;;;;;;;1.95;0.98;;;16.80;99.90;;;;;;4959530;28;89388;-31
2022/09/20 13:44:18;;;;;;;2.90;0.90;;;16.80;99.90;;;;;;4921356;28;90088;-30
2022/09/20 13:46:44;;;;;;;4.82;1.35;;;16.90;99.90;;;;;;4939880;28;90655;-31
2022/09/20 13:49:22;;;;;;;2.30;1.48;;;16.80;99.90;;;;;;4930558;28;89918;-32
2022/09/20 13:51:49;;;;;;;5.65;1.45;;;16.80;99.90;;;;;;4933657;28;89651;-31
2022/09/20 13:54:23;;;;;;;2.42;1.27;;;16.70;99.90;;;;;;4935242;28;88298;-32
2022/09/20 13:56:50;;;;;;;2.95;1.27;;;16.70;99.90;;;;;;4939914;28;91072;-31
2022/09/20 13:59:16;;;;;;;2.10;0.98;;;16.60;99.90;;;;;;4939205;28;88973;-34
2022/09/20 14:01:54;;;;;;;2.30;1.30;;;16.50;99.90;;;;;;4939925;28;89483;-31